createdAt,value
2022-09-02T00:01:43.685Z,101712.80
2022-09-02T00:04:19.981Z,101712.40
2022-09-02T00:06:52.004Z,101717.00
2022-09-02T00:09:25.337Z,101711.60
2022-09-02T00:11:55.361Z,101716.60
2022-09-02T00:14:32.586Z,101712.20
2022-09-02T00:17:01.803Z,101712.40
2022-09-02T00:19:31.766Z,101715.80
2022-09-02T00:22:02.718Z,101711.80
2022-09-02T00:24:32.322Z,101706.60
2022-09-02T00:27:01.100Z,101713.20
2022-09-02T00:29:30.197Z,101709.40
2022-09-02T00:31:59.534Z,101709.20
2022-09-02T00:34:28.800Z,101710.20
2022-09-02T00:36:58.307Z,101708.80
2022-09-02T00:39:26.890Z,101708.80
2022-09-02T00:41:56.066Z,101707.20
2022-09-02T00:44:25.390Z,101707.20
2022-09-02T00:46:53.974Z,101710.60
2022-09-02T00:49:31.872Z,101707.80
2022-09-02T00:52:24.426Z,101707.80
2022-09-02T00:55:13.060Z,101709.20
2022-09-02T00:58:15.456Z,101708.00
2022-09-02T01:00:46.900Z,101707.20
2022-09-02T01:03:20.329Z,101708.20
2022-09-02T01:05:51.177Z,101708.40
2022-09-02T01:08:26.598Z,101713.40
2022-09-02T01:10:56.999Z,101714.00
2022-09-02T01:13:30.758Z,101706.80
2022-09-02T01:16:26.797Z,101705.80
2022-09-02T01:18:59.269Z,101708.40
2022-09-02T01:21:28.322Z,101710.40
2022-09-02T01:23:57.249Z,101701.00
2022-09-02T01:26:26.170Z,101702.60
2022-09-02T01:28:54.790Z,101698.60
2022-09-02T01:31:23.424Z,101699.00
2022-09-02T01:33:52.994Z,101698.20
2022-09-02T01:36:22.899Z,101700.40
2022-09-02T01:38:51.695Z,101700.00
2022-09-02T01:41:20.987Z,101705.00
2022-09-02T01:43:49.676Z,101708.20
2022-09-02T01:46:19.425Z,101703.60
2022-09-02T01:48:48.482Z,101701.20
2022-09-02T01:51:21.164Z,101700.00
2022-09-02T01:53:50.054Z,101698.40
2022-09-02T01:56:18.945Z,101701.60
2022-09-02T01:58:47.633Z,101696.00
2022-09-02T02:01:16.265Z,101692.40
2022-09-02T02:03:48.607Z,101693.80
2022-09-02T02:06:18.475Z,101695.60
2022-09-02T02:08:47.557Z,101698.60
2022-09-02T02:11:25.231Z,101695.00
2022-09-02T02:14:04.637Z,101699.80
2022-09-02T02:16:33.745Z,101695.00
2022-09-02T02:19:03.169Z,101693.40
2022-09-02T02:21:32.907Z,101697.80
2022-09-02T02:24:01.938Z,101695.00
2022-09-02T02:26:32.058Z,101693.00
2022-09-02T02:29:01.673Z,101695.80
2022-09-02T02:31:30.822Z,101691.60
2022-09-02T02:34:00.276Z,101695.40
2022-09-02T02:36:29.269Z,101689.40
2022-09-02T02:38:58.076Z,101691.60
2022-09-02T02:41:26.950Z,101691.40
2022-09-02T02:43:56.308Z,101691.80
2022-09-02T02:46:25.169Z,101687.40
2022-09-02T02:48:54.005Z,101689.40
2022-09-02T02:51:22.726Z,101688.00
2022-09-02T02:53:54.655Z,101687.40
2022-09-02T02:56:25.835Z,101685.20
2022-09-02T02:58:55.518Z,101685.80
2022-09-02T03:01:24.468Z,101685.60
2022-09-02T03:03:54.656Z,101688.80
2022-09-02T03:06:26.414Z,101685.20
2022-09-02T03:08:56.815Z,101684.00
2022-09-02T03:11:28.301Z,101683.00
2022-09-02T03:13:58.297Z,101676.40
2022-09-02T03:16:27.146Z,101681.40
2022-09-02T03:18:55.998Z,101679.60
2022-09-02T03:21:24.885Z,101680.00
2022-09-02T03:23:53.575Z,101676.20
2022-09-02T03:26:25.337Z,101674.60
2022-09-02T03:28:59.320Z,101678.00
2022-09-02T03:31:29.007Z,101678.40
2022-09-02T03:33:58.042Z,101672.20
2022-09-02T03:36:32.159Z,101677.20
2022-09-02T03:39:10.024Z,101677.00
2022-09-02T03:41:41.619Z,101672.80
2022-09-02T03:44:11.532Z,101672.00
2022-09-02T03:46:40.630Z,101674.60
2022-09-02T03:49:09.644Z,101679.60
2022-09-02T03:51:42.744Z,101673.20
2022-09-02T03:54:11.914Z,101671.00
2022-09-02T03:56:40.702Z,101668.00
2022-09-02T03:59:09.900Z,101664.20
2022-09-02T04:01:38.554Z,101670.40
2022-09-02T04:04:09.935Z,101669.00
2022-09-02T04:06:40.161Z,101664.40
2022-09-02T04:09:08.805Z,101663.60
2022-09-02T04:11:43.025Z,101663.40
2022-09-02T04:14:12.650Z,101664.00
2022-09-02T04:16:41.766Z,101666.00
2022-09-02T04:19:11.270Z,101664.60
2022-09-02T04:21:42.281Z,101668.80
2022-09-02T04:24:12.809Z,101668.60
2022-09-02T04:26:45.276Z,101668.20
2022-09-02T04:29:16.606Z,101669.60
2022-09-02T04:31:45.640Z,101667.40
2022-09-02T04:34:14.658Z,101660.80
2022-09-02T04:36:43.446Z,101662.20
2022-09-02T04:39:13.875Z,101665.20
2022-09-02T04:41:42.972Z,101662.40
2022-09-02T04:44:13.398Z,101668.40
2022-09-02T04:46:44.264Z,101670.40
2022-09-02T04:49:16.101Z,101671.00
2022-09-02T04:51:45.398Z,101666.80
2022-09-02T04:54:14.290Z,101661.80
2022-09-02T04:56:44.921Z,101658.20
2022-09-02T04:59:14.209Z,101660.20
2022-09-02T05:01:48.255Z,101663.40
2022-09-02T05:04:19.685Z,101661.20
2022-09-02T05:06:51.037Z,101659.40
2022-09-02T05:09:22.383Z,101660.40
2022-09-02T05:11:58.137Z,101662.00
2022-09-02T05:14:29.507Z,101665.00
2022-09-02T05:17:05.221Z,101669.20
2022-09-02T05:19:36.178Z,101667.20
2022-09-02T05:22:05.480Z,101669.60
2022-09-02T05:24:37.341Z,101671.00
2022-09-02T05:27:10.298Z,101664.20
2022-09-02T05:29:40.621Z,101667.40
2022-09-02T05:32:11.389Z,101659.00
2022-09-02T05:34:41.304Z,101653.20
2022-09-02T05:37:10.093Z,101657.40
2022-09-02T05:39:38.783Z,101656.60
2022-09-02T05:42:08.557Z,101657.40
2022-09-02T05:44:39.313Z,101657.80
2022-09-02T05:47:08.220Z,101653.40
2022-09-02T05:49:37.008Z,101654.80
2022-09-02T05:52:12.250Z,101653.40
2022-09-02T05:54:45.134Z,101650.60
2022-09-02T05:57:17.918Z,101653.20
2022-09-02T05:59:57.254Z,101649.40
2022-09-02T06:02:44.146Z,101653.20
2022-09-02T06:05:19.307Z,101654.40
2022-09-02T06:07:53.215Z,101658.60
2022-09-02T06:10:22.829Z,101651.60
2022-09-02T06:12:51.921Z,101656.00
2022-09-02T06:15:22.560Z,101653.00
2022-09-02T06:17:51.444Z,101645.20
2022-09-02T06:20:20.234Z,101646.20
2022-09-02T06:22:49.125Z,101650.00
2022-09-02T06:25:21.296Z,101644.80
2022-09-02T06:27:50.194Z,101641.00
2022-09-02T06:30:19.794Z,101637.20
2022-09-02T06:32:50.477Z,101629.00
2022-09-02T06:35:20.300Z,101637.00
2022-09-02T06:37:49.951Z,101637.60
2022-09-02T06:40:19.421Z,101628.60
2022-09-02T06:42:49.883Z,101626.40
2022-09-02T06:45:29.322Z,101627.00
2022-09-02T06:47:59.546Z,101625.80
2022-09-02T06:50:28.447Z,101617.60
2022-09-02T06:52:57.331Z,101616.20
2022-09-02T06:55:26.118Z,101614.20
2022-09-02T06:57:55.199Z,101610.00
2022-09-02T07:00:24.094Z,101610.60
2022-09-02T07:03:12.766Z,101615.40
2022-09-02T07:05:41.556Z,101600.80
2022-09-02T07:08:10.545Z,101605.80
2022-09-02T07:10:41.424Z,101599.40
2022-09-02T07:13:10.478Z,101601.00
2022-09-02T07:15:41.622Z,101599.40
2022-09-02T07:18:11.058Z,101598.20
2022-09-02T07:20:40.232Z,101598.60
2022-09-02T07:23:09.730Z,101607.40
2022-09-02T07:25:41.574Z,101600.40
2022-09-02T07:28:11.898Z,101598.20
2022-09-02T07:30:43.513Z,101599.00
2022-09-02T07:33:16.518Z,101594.40
2022-09-02T07:35:47.407Z,101594.00
2022-09-02T07:38:19.456Z,101594.20
2022-09-02T07:40:51.121Z,101589.80
2022-09-02T07:43:27.060Z,101590.00
2022-09-02T07:45:56.928Z,101596.20
2022-09-02T07:48:26.090Z,101591.20
2022-09-02T07:50:55.094Z,101597.20
2022-09-02T07:53:24.209Z,101594.00
2022-09-02T07:55:52.969Z,101597.80
2022-09-02T07:58:22.770Z,101595.80
2022-09-02T08:00:54.029Z,101600.80
2022-09-02T08:03:26.485Z,101595.60
2022-09-02T08:05:57.755Z,101601.60
2022-09-02T08:08:27.928Z,101596.80
2022-09-02T08:10:57.632Z,101602.20
2022-09-02T08:13:27.125Z,101604.20
2022-09-02T08:15:56.702Z,101600.40
2022-09-02T08:18:25.749Z,101607.60
2022-09-02T08:20:54.379Z,101609.20
2022-09-02T08:23:36.629Z,101611.00
2022-09-02T08:26:07.554Z,101608.80
2022-09-02T08:28:36.316Z,101613.40
2022-09-02T08:31:08.790Z,101615.80
2022-09-02T08:33:37.488Z,101610.20
2022-09-02T08:36:09.544Z,101615.00
2022-09-02T08:38:38.389Z,101616.80
2022-09-02T08:41:37.943Z,101616.40
2022-09-02T08:44:07.345Z,101619.00
2022-09-02T08:46:36.441Z,101629.40
2022-09-02T08:49:54.690Z,101622.00
2022-09-02T08:52:55.024Z,101625.60
2022-09-02T08:55:37.125Z,101618.80
2022-09-02T09:00:41.963Z,101621.20
2022-09-02T09:03:37.901Z,101616.00
2022-09-02T09:06:21.125Z,101617.80
2022-09-02T09:10:02.312Z,101621.20
2022-09-02T09:13:00.591Z,101622.80
2022-09-02T09:16:08.444Z,101613.20
2022-09-02T09:18:55.618Z,101633.80
2022-09-02T09:23:56.063Z,101623.20
2022-09-02T09:26:31.270Z,101621.80
2022-09-02T09:29:00.399Z,101618.00
2022-09-02T09:31:32.695Z,101627.80
2022-09-02T09:34:19.296Z,101622.00
2022-09-02T09:36:52.471Z,101611.80
2022-09-02T09:39:29.945Z,101620.00
2022-09-02T09:42:09.537Z,101621.80
2022-09-02T09:44:45.289Z,101623.60
2022-09-02T09:47:40.568Z,101614.40
2022-09-02T09:50:19.187Z,101614.20
2022-09-02T09:52:48.903Z,101616.00
2022-09-02T09:55:24.752Z,101611.60
2022-09-02T09:58:10.334Z,101596.20
2022-09-02T10:00:40.773Z,101595.00
2022-09-02T10:03:23.598Z,101596.00
2022-09-02T10:06:17.254Z,101595.60
2022-09-02T10:09:22.805Z,101589.40
2022-09-02T10:12:01.014Z,101601.20
2022-09-02T10:14:41.991Z,101601.40
2022-09-02T10:17:37.813Z,101604.40
2022-09-02T10:20:27.398Z,101607.20
2022-09-02T10:23:44.110Z,101609.00
2022-09-02T10:26:56.413Z,101610.00
2022-09-02T10:29:31.039Z,101607.20
2022-09-02T10:32:13.352Z,101609.60
2022-09-02T10:34:58.211Z,101607.60
2022-09-02T10:37:40.415Z,101608.40
2022-09-02T10:40:28.737Z,101604.80
2022-09-02T10:43:30.730Z,101597.20
2022-09-02T10:46:02.230Z,101595.00
2022-09-02T10:49:05.484Z,101598.00
2022-09-02T10:52:14.236Z,101596.00
2022-09-02T10:55:10.545Z,101595.80
2022-09-02T10:58:07.084Z,101594.00
2022-09-02T11:00:38.324Z,101587.00
2022-09-02T11:03:31.410Z,101584.20
2022-09-02T11:06:46.025Z,101574.00
2022-09-02T11:09:56.731Z,101581.80
2022-09-02T11:12:47.630Z,101582.80
2022-09-02T11:15:47.882Z,101580.20
2022-09-02T11:18:50.750Z,101578.80
2022-09-02T11:21:44.213Z,101573.40
2022-09-02T11:24:30.513Z,101567.00
2022-09-02T11:27:26.277Z,101563.20
2022-09-02T11:30:22.974Z,101559.80
2022-09-02T11:33:18.274Z,101555.60
2022-09-02T11:35:47.080Z,101552.20
2022-09-02T11:38:15.642Z,101551.60
2022-09-02T11:44:52.112Z,101541.80
2022-09-02T11:47:27.299Z,101541.80
2022-09-02T11:50:27.573Z,101540.80
2022-09-02T11:53:31.544Z,101546.00
2022-09-02T11:56:12.311Z,101546.40
2022-09-02T11:58:48.514Z,101548.60
2022-09-02T12:01:33.465Z,101544.40
2022-09-02T12:07:09.607Z,101538.60
2022-09-02T12:09:55.288Z,101543.60
2022-09-02T12:12:39.358Z,101539.20
2022-09-02T12:15:18.240Z,101537.00
2022-09-02T12:17:48.611Z,101535.80
2022-09-02T12:20:46.961Z,101532.20
2022-09-02T12:23:51.419Z,101532.00
2022-09-02T12:26:24.756Z,101532.80
2022-09-02T12:29:19.823Z,101524.80
2022-09-02T12:31:52.151Z,101526.00
2022-09-02T12:34:21.396Z,101523.00
2022-09-02T12:36:54.982Z,101522.80
2022-09-02T12:39:23.578Z,101518.60
2022-09-02T12:41:58.410Z,101518.00
2022-09-02T12:44:57.204Z,101515.80
2022-09-02T12:48:19.082Z,101516.20
2022-09-02T12:51:00.417Z,101508.60
2022-09-02T12:53:49.415Z,101507.80
2022-09-02T12:56:24.521Z,101510.40
2022-09-02T12:59:00.228Z,101506.20
2022-09-02T13:01:48.463Z,101510.60
2022-09-02T13:04:48.148Z,101507.00
2022-09-02T13:07:54.010Z,101504.40
2022-09-02T13:11:07.119Z,101510.00
2022-09-02T13:13:57.513Z,101504.40
2022-09-02T13:17:48.431Z,101498.60
2022-09-02T13:20:57.873Z,101499.60
2022-09-02T13:24:22.881Z,101491.40
2022-09-02T13:27:40.721Z,101492.80
2022-09-02T13:30:15.019Z,101491.40
2022-09-02T13:32:44.136Z,101493.00
2022-09-02T13:35:24.752Z,101487.60
2022-09-02T13:38:01.966Z,101485.60
2022-09-02T13:40:34.721Z,101487.80
2022-09-02T13:43:16.427Z,101487.00
2022-09-02T13:45:47.529Z,101485.20
2022-09-02T13:48:23.272Z,101481.20
2022-09-02T13:50:55.340Z,101479.00
2022-09-02T13:53:45.521Z,101473.40
2022-09-02T13:56:25.271Z,101473.20
2022-09-02T13:58:58.777Z,101478.40
2022-09-02T14:01:35.007Z,101472.00
2022-09-02T14:04:14.669Z,101473.20
2022-09-02T14:06:47.719Z,101471.40
2022-09-02T14:09:29.148Z,101467.40
2022-09-02T14:12:00.099Z,101461.80
2022-09-02T14:14:29.938Z,101462.20
2022-09-02T14:17:26.088Z,101455.40
2022-09-02T14:20:23.445Z,101455.40
2022-09-02T14:22:59.795Z,101457.20
2022-09-02T14:25:37.451Z,101448.60
2022-09-02T14:28:20.332Z,101449.00
2022-09-02T14:31:23.375Z,101439.00
2022-09-02T14:33:52.255Z,101434.60
2022-09-02T14:36:24.217Z,101435.60
2022-09-02T14:39:13.897Z,101421.80
2022-09-02T14:41:52.127Z,101431.20
2022-09-02T14:44:34.541Z,101439.60
2022-09-02T14:47:13.443Z,101431.40
2022-09-02T14:49:56.144Z,101429.60
2022-09-02T14:52:30.517Z,101439.20
2022-09-02T14:54:59.469Z,101443.60
2022-09-02T14:57:39.219Z,101445.40
2022-09-02T15:00:11.702Z,101450.40
2022-09-02T15:02:44.288Z,101447.00
2022-09-02T15:05:16.993Z,101444.00
2022-09-02T15:07:46.972Z,101441.00
2022-09-02T15:10:15.655Z,101437.40
2022-09-02T15:12:53.691Z,101434.40
2022-09-02T15:15:22.587Z,101436.40
2022-09-02T15:17:51.240Z,101441.00
2022-09-02T15:20:21.853Z,101437.60
2022-09-02T15:22:53.604Z,101439.40
2022-09-02T15:25:22.214Z,101441.80
2022-09-02T15:27:50.902Z,101444.80
2022-09-02T15:30:19.592Z,101445.20
2022-09-02T15:32:48.480Z,101444.20
2022-09-02T15:35:17.415Z,101438.40
2022-09-02T15:37:50.643Z,101436.20
2022-09-02T15:40:19.252Z,101428.40
2022-09-02T15:42:47.836Z,101430.60
2022-09-02T15:45:16.830Z,101432.60
2022-09-02T15:47:45.414Z,101429.20
2022-09-02T15:50:14.423Z,101427.00
2022-09-02T15:52:46.681Z,101427.60
2022-09-02T15:55:15.366Z,101430.20
2022-09-02T15:57:44.361Z,101432.60
2022-09-02T16:00:13.820Z,101427.40
2022-09-02T16:02:44.139Z,101433.00
2022-09-02T16:05:14.517Z,101433.60
2022-09-02T16:07:43.203Z,101431.80
2022-09-02T16:10:12.252Z,101437.80
2022-09-02T16:12:41.294Z,101432.00
2022-09-02T16:15:10.493Z,101436.00
2022-09-02T16:17:39.076Z,101435.80
2022-09-02T16:20:08.437Z,101438.20
2022-09-02T16:22:37.679Z,101436.00
2022-09-02T16:25:07.362Z,101438.20
2022-09-02T16:27:55.329Z,101433.00
2022-09-02T16:30:25.213Z,101434.40
2022-09-02T16:32:55.474Z,101428.60
2022-09-02T16:35:24.153Z,101431.60
2022-09-02T16:37:54.274Z,101429.00
2022-09-02T16:40:22.858Z,101428.00
2022-09-02T16:42:51.546Z,101426.00
2022-09-02T16:45:20.136Z,101425.40
2022-09-02T16:47:48.817Z,101422.80
2022-09-02T16:50:17.605Z,101420.00
2022-09-02T16:52:46.292Z,101422.80
2022-09-02T16:55:18.978Z,101420.00
2022-09-02T16:57:47.966Z,101420.80
2022-09-02T17:00:17.579Z,101418.20
2022-09-02T17:02:46.303Z,101418.40
2022-09-02T17:05:17.835Z,101421.80
2022-09-02T17:07:47.121Z,101421.80
2022-09-02T17:10:16.111Z,101415.40
2022-09-02T17:12:44.802Z,101415.60
2022-09-02T17:15:13.587Z,101412.80
2022-09-02T17:17:42.747Z,101416.00
2022-09-02T17:20:13.521Z,101415.60
2022-09-02T17:22:42.207Z,101413.80
2022-09-02T17:25:11.896Z,101415.20
2022-09-02T17:27:42.227Z,101414.20
2022-09-02T17:30:12.702Z,101414.80
2022-09-02T17:32:42.551Z,101409.80
2022-09-02T17:35:12.400Z,101411.60
2022-09-02T17:37:41.607Z,101413.80
2022-09-02T17:40:30.466Z,101418.20
2022-09-02T17:42:59.042Z,101419.80
2022-09-02T17:45:27.630Z,101424.80
2022-09-02T17:47:59.263Z,101423.60
2022-09-02T17:50:38.315Z,101427.40
2022-09-02T17:53:06.899Z,101429.20
2022-09-02T17:55:35.584Z,101428.80
2022-09-02T17:58:16.869Z,101426.20
2022-09-02T18:00:47.434Z,101432.20
2022-09-02T18:03:24.417Z,101433.60
2022-09-02T18:06:29.071Z,101433.80
2022-09-02T18:09:03.897Z,101439.00
2022-09-02T18:11:33.447Z,101440.00
2022-09-02T18:14:41.150Z,101441.60
2022-09-02T18:17:17.298Z,101439.00
2022-09-02T18:19:58.081Z,101436.20
2022-09-02T18:23:10.801Z,101442.20
2022-09-02T18:26:30.690Z,101445.20
2022-09-02T18:29:44.023Z,101443.00
2022-09-02T18:32:41.280Z,101448.40
2022-09-02T18:35:35.362Z,101445.60
2022-09-02T18:38:39.274Z,101451.60
2022-09-02T18:41:45.542Z,101447.60
2022-09-02T18:44:41.650Z,101450.20
2022-09-02T18:47:32.674Z,101458.00
2022-09-02T18:50:06.318Z,101458.60
2022-09-02T18:52:37.985Z,101460.40
2022-09-02T18:55:16.050Z,101461.40
2022-09-02T18:57:57.638Z,101463.80
2022-09-02T19:00:34.929Z,101464.80
2022-09-02T19:03:05.563Z,101466.60
2022-09-02T19:05:36.438Z,101466.00
2022-09-02T19:08:35.393Z,101465.80
2022-09-02T19:11:09.207Z,101461.80
2022-09-02T19:13:50.340Z,101469.00
2022-09-02T19:16:32.119Z,101474.80
2022-09-02T19:19:00.866Z,101468.80
2022-09-02T19:21:44.399Z,101470.00
2022-09-02T19:24:43.501Z,101473.40
2022-09-02T19:27:23.730Z,101477.20
2022-09-02T19:30:02.080Z,101476.40
2022-09-02T19:32:35.918Z,101479.80
2022-09-02T19:35:16.804Z,101477.80
2022-09-02T19:37:51.442Z,101482.80
2022-09-02T19:40:27.077Z,101481.80
2022-09-02T19:42:58.104Z,101487.20
2022-09-02T19:45:29.672Z,101493.20
2022-09-02T19:48:09.433Z,101492.60
2022-09-02T19:50:42.911Z,101495.20
2022-09-02T19:53:28.245Z,101497.20
2022-09-02T19:56:00.924Z,101502.40
2022-09-02T19:58:31.488Z,101498.00
2022-09-02T20:01:03.588Z,101494.40
2022-09-02T20:03:34.621Z,101492.60
2022-09-02T20:06:03.353Z,101494.00
2022-09-02T20:08:32.238Z,101493.20
2022-09-02T20:11:06.209Z,101490.80
2022-09-02T20:13:40.736Z,101489.40
2022-09-02T20:16:20.703Z,101491.00
2022-09-02T20:18:52.278Z,101491.60
2022-09-02T20:21:33.209Z,101487.60
2022-09-02T20:24:09.065Z,101488.80
2022-09-02T20:27:05.653Z,101493.00
2022-09-02T20:29:57.281Z,101495.20
2022-09-02T20:32:58.835Z,101497.00
2022-09-02T20:36:01.416Z,101496.80
2022-09-02T20:38:51.099Z,101498.20
2022-09-02T20:41:41.096Z,101500.00
2022-09-02T20:44:58.102Z,101499.60
2022-09-02T20:48:07.033Z,101499.00
2022-09-02T20:51:42.384Z,101502.40
2022-09-02T20:54:29.707Z,101497.40
2022-09-02T20:57:39.149Z,101502.60
2022-09-02T21:00:14.594Z,101503.20
2022-09-02T21:02:55.796Z,101501.80
2022-09-02T21:05:31.576Z,101505.00
2022-09-02T21:08:29.061Z,101504.40
2022-09-02T21:11:01.337Z,101507.80
2022-09-02T21:13:44.491Z,101509.80
2022-09-02T21:16:20.034Z,101513.00
2022-09-02T21:19:25.382Z,101513.80
2022-09-02T21:22:40.046Z,101512.40
2022-09-02T21:25:42.098Z,101510.20
2022-09-02T21:28:20.408Z,101514.00
2022-09-02T21:30:58.923Z,101516.40
2022-09-02T21:33:29.963Z,101521.20
2022-09-02T21:36:01.914Z,101521.20
2022-09-02T21:38:42.210Z,101519.60
2022-09-02T21:41:31.433Z,101520.80
2022-09-02T21:44:28.328Z,101521.40
2022-09-02T21:47:34.287Z,101520.40
2022-09-02T21:50:19.924Z,101524.00
2022-09-02T21:53:23.578Z,101518.80
2022-09-02T21:56:00.559Z,101519.00
2022-09-02T21:59:14.627Z,101515.60
2022-09-02T22:02:00.334Z,101515.40
2022-09-02T22:05:01.499Z,101516.20
2022-09-02T22:07:47.335Z,101517.20
2022-09-02T22:10:29.127Z,101517.20
2022-09-02T22:13:01.514Z,101518.20
2022-09-02T22:15:39.098Z,101515.40
2022-09-02T22:18:28.940Z,101519.40
2022-09-02T22:21:02.070Z,101517.20
2022-09-02T22:23:31.270Z,101519.60
2022-09-02T22:26:13.780Z,101517.00
2022-09-02T22:28:50.864Z,101519.80
2022-09-02T22:31:26.379Z,101520.40
2022-09-02T22:33:56.328Z,101514.20
2022-09-02T22:37:22.668Z,101520.60
2022-09-02T22:39:53.454Z,101517.80
2022-09-02T22:42:36.214Z,101517.80
2022-09-02T22:45:37.368Z,101517.60
2022-09-02T22:48:54.592Z,101524.40
2022-09-02T22:51:55.330Z,101526.20
2022-09-02T22:54:27.090Z,101523.00
2022-09-02T22:57:05.300Z,101523.80
2022-09-02T22:59:49.044Z,101526.00
2022-09-02T23:02:47.833Z,101523.20
2022-09-02T23:05:45.524Z,101524.00
2022-09-02T23:08:23.300Z,101526.00
2022-09-02T23:11:00.692Z,101530.20
2022-09-02T23:14:09.426Z,101522.80
2022-09-02T23:17:05.550Z,101522.20
2022-09-02T23:19:44.682Z,101520.00
2022-09-02T23:22:41.426Z,101520.80
2022-09-02T23:25:32.428Z,101521.20
2022-09-02T23:28:15.766Z,101521.40
2022-09-02T23:31:04.307Z,101521.40
2022-09-02T23:33:54.920Z,101513.80
2022-09-02T23:36:35.487Z,101509.60
2022-09-02T23:39:31.528Z,101503.20
2022-09-02T23:42:03.372Z,101501.00
2022-09-02T23:44:31.957Z,101496.00
2022-09-02T23:47:03.100Z,101497.40
2022-09-02T23:49:52.788Z,101494.00
2022-09-02T23:53:02.528Z,101496.40
2022-09-02T23:56:09.320Z,101490.60
2022-09-02T23:58:49.570Z,101488.00
